Time;durP1;ratioP1;P1;durP2;ratioP2;P2;SDS_P1;SDS_P2;PMS_P1;PMS_P2;Temp;Humidity;BMP_temperature;BMP_pressure;BME280_temperature;BME280_humidity;BME280_pressure;Samples;Min_cycle;Max_cycle;Signal;HPM_P1;HPM_P2
2021/12/01 10:17:20;;;;;;;10.82;8.40;;;;;;;5.68;60.63;98712.69;1708325;82;21089;-76
2021/12/01 10:19:47;;;;;;;9.60;7.80;;;;;;;5.69;60.71;98717.45;1725857;81;21090;-78
2021/12/01 10:22:14;;;;;;;9.00;7.58;;;;;;;5.61;60.46;98728.86;1688319;83;21086;-76
2021/12/01 10:24:45;;;;;;;10.30;8.08;;;;;;;5.65;60.32;98730.44;1703892;83;21098;-76
2021/12/01 10:27:12;;;;;;;9.15;8.05;;;;;;;5.60;60.33;98727.28;1703043;82;20955;-76
2021/12/01 10:29:50;;;;;;;10.53;8.23;;;;;;;5.58;60.39;98731.26;1704587;82;21766;-75
2021/12/01 10:32:19;;;;;;;11.38;8.15;;;;;;;5.62;60.16;98734.95;1726958;82;21019;-75
2021/12/01 10:34:58;;;;;;;10.90;9.38;;;;;;;5.62;60.04;98738.39;1726661;83;21081;-75
2021/12/01 10:37:29;;;;;;;11.12;8.60;;;;;;;5.68;59.92;98735.20;1739196;79;80413;-75
2021/12/01 10:40:12;;;;;;;12.35;8.95;;;;;;;5.70;59.87;98733.09;1754319;81;21157;-75
2021/12/01 10:42:59;;;;;;;12.50;9.45;;;;;;;5.70;60.00;98737.59;1738641;81;21070;-75
2021/12/01 10:45:42;;;;;;;11.83;8.95;;;;;;;5.73;60.03;98737.85;1732989;81;21544;-76
2021/12/01 10:48:13;;;;;;;11.25;9.63;;;;;;;5.71;59.95;98741.29;1745685;81;20984;-75
2021/12/01 10:50:41;;;;;;;12.58;9.48;;;;;;;5.69;59.76;98746.05;1732126;81;21023;-75
2021/12/01 10:53:15;;;;;;;11.93;9.23;;;;;;;5.64;59.86;98755.34;1757087;81;21517;-75
2021/12/01 10:55:43;;;;;;;;;;;;;;;5.62;59.88;98751.63;1759565;81;21201;-73
2021/12/01 10:58:10;;;;;;;12.80;9.20;;;;;;;5.65;60.03;98764.34;1746002;81;20195;-74
2021/12/01 11:00:41;;;;;;;11.97;8.73;;;;;;;5.60;60.04;98770.98;1732528;81;21015;-75
2021/12/01 11:03:21;;;;;;;12.82;9.00;;;;;;;5.61;60.12;98776.54;1728923;81;21070;-77
2021/12/01 11:05:53;;;;;;;12.80;9.78;;;;;;;5.64;60.06;98768.59;1742338;81;21050;-76
2021/12/01 11:08:28;;;;;;;10.65;8.23;;;;;;;5.63;60.12;98778.94;1731663;81;22020;-76
2021/12/01 11:11:11;;;;;;;10.38;8.43;;;;;;;5.63;60.16;98773.64;1736664;81;21030;-75
2021/12/01 11:13:42;;;;;;;;;;;;;;;5.59;60.38;98781.33;1754559;81;21062;-75
2021/12/01 11:16:10;;;;;;;11.85;8.63;;;;;;;5.62;60.22;98787.92;1748909;81;20136;-75
2021/12/01 11:18:41;;;;;;;11.22;8.60;;;;;;;5.59;60.35;98781.83;1745485;81;21007;-74
2021/12/01 11:21:23;;;;;;;10.88;8.60;;;;;;;5.59;60.44;98785.80;1746126;81;21074;-75
2021/12/01 11:23:59;;;;;;;;;;;;;;;5.55;60.48;98794.03;1731225;82;21094;-75
2021/12/01 11:26:28;;;;;;;13.03;8.83;;;;;;;5.54;60.32;98788.48;1742669;81;20435;-75
2021/12/01 11:28:59;;;;;;;12.33;8.43;;;;;;;5.49;60.42;98800.38;1734698;81;20952;-75
2021/12/01 11:31:37;;;;;;;11.40;8.78;;;;;;;5.49;60.38;98799.84;1743184;81;21050;-75
2021/12/01 11:34:10;;;;;;;11.22;8.65;;;;;;;5.51;60.29;98805.69;1676278;82;21131;-75
2021/12/01 11:36:41;;;;;;;11.25;8.80;;;;;;;5.51;60.06;98800.92;1702020;81;21070;-74
2021/12/01 11:39:17;;;;;;;10.53;8.43;;;;;;;5.51;60.09;98803.57;1692697;82;21106;-75
2021/12/01 11:41:46;;;;;;;10.55;8.30;;;;;;;5.51;59.84;98803.03;1690028;84;21101;-74
2021/12/01 11:44:14;;;;;;;11.63;8.80;;;;;;;5.50;59.72;98804.64;1700719;84;21101;-75
2021/12/01 11:46:41;;;;;;;11.93;9.58;;;;;;;5.48;59.59;98799.59;1702546;82;21112;-75
2021/12/01 11:49:10;;;;;;;12.78;9.68;;;;;;;5.50;59.61;98807.28;1701109;82;21058;-76
2021/12/01 11:51:57;;;;;;;10.82;8.20;;;;;;;5.54;59.80;98819.72;1672117;84;21051;-75
2021/12/01 11:54:25;;;;;;;12.85;9.18;;;;;;;5.55;59.57;98829.24;1710020;83;21091;-75
2021/12/01 11:57:05;;;;;;;10.88;9.35;;;;;;;5.61;59.47;98826.86;1711795;83;21063;-75
2021/12/01 11:59:44;;;;;;;13.28;8.93;;;;;;;5.64;59.40;98835.59;1714621;82;21231;-75
2021/12/01 12:02:23;;;;;;;11.50;8.48;;;;;;;5.63;59.12;98865.02;1715426;83;21087;-75
2021/12/01 12:04:55;;;;;;;10.93;8.30;;;;;;;5.68;58.96;98853.08;1672535;84;21109;-75
2021/12/01 12:07:31;;;;;;;11.97;8.93;;;;;;;5.74;58.54;98853.34;1726356;83;21616;-74
2021/12/01 12:10:18;;;;;;;10.68;8.25;;;;;;;5.79;58.23;98856.00;1725827;83;21110;-73
2021/12/01 12:13:08;;;;;;;13.10;8.75;;;;;;;5.73;57.72;98857.06;1714408;83;21142;-74
2021/12/01 12:15:47;;;;;;;10.50;8.28;;;;;;;5.75;57.50;98858.89;1711387;83;21067;-74
2021/12/01 12:18:47;;;;;;;11.78;8.73;;;;;;;5.88;57.46;98856.23;1727060;83;21082;-74
2021/12/01 12:21:16;;;;;;;9.93;8.23;;;;;;;5.95;57.01;98859.95;1726859;83;21028;-75
2021/12/01 12:23:45;;;;;;;12.35;8.20;;;;;;;6.03;56.51;98868.70;1724388;82;21532;-76
2021/12/01 12:26:11;;;;;;;11.10;8.45;;;;;;;6.10;56.23;98875.84;1724238;83;21319;-75
2021/12/01 12:28:40;;;;;;;12.82;8.70;;;;;;;6.03;55.95;98885.39;1673696;85;21050;-76
2021/12/01 12:31:22;;;;;;;12.78;9.03;;;;;;;5.98;55.83;98874.00;1725445;83;21529;-74
2021/12/01 12:33:53;;;;;;;11.93;8.00;;;;;;;5.94;55.69;98871.63;1724496;83;21064;-74
2021/12/01 12:36:43;;;;;;;10.53;8.03;;;;;;;5.88;55.89;98883.52;1724331;81;21188;-75
2021/12/01 12:39:23;;;;;;;12.75;8.93;;;;;;;5.90;56.20;98890.42;1725801;82;21092;-74
2021/12/01 12:42:09;;;;;;;11.85;8.43;;;;;;;5.88;56.37;98903.39;1726389;81;21019;-75
2021/12/01 12:44:42;;;;;;;12.25;8.65;;;;;;;5.85;56.40;98903.92;1718286;82;21531;-75
2021/12/01 12:47:31;;;;;;;11.65;9.13;;;;;;;5.82;56.60;98919.55;1721060;83;21094;-75
2021/12/01 12:50:15;;;;;;;10.58;8.50;;;;;;;5.78;56.97;98924.59;1696622;83;21391;-75
2021/12/01 12:52:45;;;;;;;11.73;8.38;;;;;;;5.74;57.04;98932.81;1724300;83;21829;-75
2021/12/01 12:55:26;;;;;;;12.98;9.33;;;;;;;5.73;57.19;98943.16;1725616;83;21051;-75
2021/12/01 12:58:05;;;;;;;10.90;8.20;;;;;;;5.69;57.42;98928.83;1725532;83;21094;-74
2021/12/01 13:00:49;;;;;;;12.90;9.18;;;;;;;5.70;57.39;98925.67;1673965;84;21417;-75
2021/12/01 13:03:31;;;;;;;12.45;8.93;;;;;;;5.54;57.46;98948.16;1706240;82;21118;-75
2021/12/01 13:06:07;;;;;;;12.95;9.53;;;;;;;5.53;57.60;98952.41;1712079;83;21123;-75
2021/12/01 13:08:44;;;;;;;10.23;8.10;;;;;;;5.54;57.52;98960.08;1712638;83;21083;-74
2021/12/01 13:11:20;;;;;;;10.28;7.30;;;;;;;5.51;57.11;98981.78;1716851;83;21518;-75
2021/12/01 13:13:57;;;;;;;10.95;8.60;;;;;;;5.50;56.95;98986.03;1686523;83;21031;-75
2021/12/01 13:16:27;;;;;;;9.33;7.12;;;;;;;5.58;57.02;98994.24;1712475;83;21576;-73
2021/12/01 13:18:55;;;;;;;9.58;6.35;;;;;;;5.51;56.57;98999.53;1711101;82;21176;-75
2021/12/01 13:21:24;;;;;;;10.30;7.00;;;;;;;5.48;56.08;99010.11;1701537;83;21058;-76
2021/12/01 13:23:56;;;;;;;9.45;6.78;;;;;;;5.46;55.88;99017.52;1724445;83;21011;-75
2021/12/01 13:26:34;;;;;;;11.48;7.28;;;;;;;5.45;56.21;99019.91;1719943;83;21089;-75
2021/12/01 13:29:07;;;;;;;9.33;6.70;;;;;;;5.34;56.81;99032.31;1720139;83;21031;-76
2021/12/01 13:31:45;;;;;;;8.43;5.80;;;;;;;5.23;56.21;99031.20;1724452;83;21150;-77
2021/12/01 13:34:19;;;;;;;7.75;5.80;;;;;;;5.25;55.56;99037.84;1716416;81;21024;-77
2021/12/01 13:36:52;;;;;;;9.30;6.22;;;;;;;5.26;55.34;99051.34;1723195;83;21007;-76
2021/12/01 13:39:26;;;;;;;8.68;5.65;;;;;;;5.31;55.30;99057.98;1719514;83;21040;-76
2021/12/01 13:42:08;;;;;;;7.75;5.47;;;;;;;5.21;55.97;99074.36;1722979;82;21058;-77
2021/12/01 13:44:41;;;;;;;7.80;5.62;;;;;;;5.22;55.70;99089.97;1726425;83;21924;-79
2021/12/01 13:47:23;;;;;;;8.35;5.60;;;;;;;5.09;55.28;99099.70;1725880;83;21175;-77
2021/12/01 13:49:56;;;;;;;8.23;5.42;;;;;;;5.03;54.89;99092.78;1725784;83;21043;-76
2021/12/01 13:52:36;;;;;;;8.28;5.62;;;;;;;4.89;54.80;99103.81;1727132;83;21474;-78
2021/12/01 13:55:23;;;;;;;7.25;4.85;;;;;;;4.78;54.56;99115.39;1727056;83;21054;-76
2021/12/01 13:58:14;;;;;;;7.53;4.42;;;;;;;4.68;54.18;99121.93;1726589;83;21947;-74
2021/12/01 14:00:51;;;;;;;8.08;4.95;;;;;;;4.56;53.73;99126.05;1726312;83;21136;-75
2021/12/01 14:03:19;;;;;;;7.12;4.97;;;;;;;4.45;53.63;99137.08;1725645;83;21063;-77
2021/12/01 14:05:50;;;;;;;7.35;4.37;;;;;;;4.39;53.31;99171.13;1723211;83;21309;-79
2021/12/01 14:08:33;;;;;;;7.53;4.33;;;;;;;4.30;52.53;99175.26;1725248;83;21149;-73
2021/12/01 14:11:26;;;;;;;7.17;4.58;;;;;;;4.25;51.80;99179.19;1724791;83;21140;-72
2021/12/01 14:14:05;;;;;;;8.20;4.20;;;;;;;4.15;51.54;99176.44;1725523;83;21098;-75
2021/12/01 14:16:32;;;;;;;8.50;4.08;;;;;;;4.06;51.25;99185.33;1725938;83;21640;-75
2021/12/01 14:18:59;;;;;;;7.97;4.37;;;;;;;4.07;51.39;99195.36;1725782;83;21039;-84
2021/12/01 14:21:28;;;;;;;6.55;3.80;;;;;;;4.05;51.45;99183.73;1716852;82;21165;-71
2021/12/01 14:23:58;;;;;;;6.30;3.72;;;;;;;4.02;51.22;99209.33;1707489;83;21143;-73
2021/12/01 14:26:38;;;;;;;5.72;3.80;;;;;;;4.02;50.95;99200.61;1707539;83;21142;-73
2021/12/01 14:29:07;;;;;;;6.17;3.45;;;;;;;4.03;50.97;99198.23;1723166;83;21115;-74
2021/12/01 14:31:34;;;;;;;5.37;3.05;;;;;;;4.03;50.53;99196.91;1725634;83;20987;-73
2021/12/01 14:34:18;;;;;;;6.35;2.80;;;;;;;4.02;49.90;99205.37;1726884;81;21015;-73
2021/12/01 14:36:46;;;;;;;4.65;2.52;;;;;;;3.99;48.28;99204.53;1726496;83;21227;-71
2021/12/01 14:39:15;;;;;;;3.60;2.10;;;;;;;3.94;47.62;99204.46;1721862;83;20968;-73
2021/12/01 14:41:43;;;;;;;4.92;2.62;;;;;;;3.86;46.96;99207.02;1724404;83;21484;-72
2021/12/01 14:44:10;;;;;;;6.17;3.02;;;;;;;3.79;47.01;99223.58;1726032;83;21507;-74
2021/12/01 14:46:38;;;;;;;5.22;2.30;;;;;;;3.74;46.46;99216.37;1727035;83;21550;-74
2021/12/01 14:49:09;;;;;;;6.45;2.80;;;;;;;3.72;46.26;99227.72;1723146;83;21205;-75
2021/12/01 14:51:42;;;;;;;7.53;3.05;;;;;;;3.70;46.23;99244.84;1699960;82;21567;-71
2021/12/01 14:54:13;;;;;;;4.70;2.40;;;;;;;3.65;46.29;99248.72;1703633;82;21038;-71
2021/12/01 14:56:50;;;;;;;6.42;2.22;;;;;;;3.60;45.76;99253.42;1702114;84;26658;-71
2021/12/01 14:59:17;;;;;;;5.37;2.00;;;;;;;3.51;45.16;99250.39;1695257;83;21129;-75
2021/12/01 15:01:44;;;;;;;3.60;1.85;;;;;;;3.53;45.06;99254.91;1718660;83;21241;-70
2021/12/01 15:04:11;;;;;;;3.98;1.85;;;;;;;3.45;44.43;99243.43;1716882;83;21105;-69
2021/12/01 15:06:38;;;;;;;4.83;1.87;;;;;;;3.43;44.29;99265.33;1683788;82;21549;-71
2021/12/01 15:09:05;;;;;;;5.55;2.10;;;;;;;3.44;44.24;99260.84;1720998;83;21062;-69
2021/12/01 15:11:42;;;;;;;4.75;1.90;;;;;;;3.42;43.80;99264.23;1721403;81;21042;-71
2021/12/01 15:14:09;;;;;;;4.37;2.00;;;;;;;3.43;43.71;99284.33;1725933;83;21166;-71
2021/12/01 15:16:36;;;;;;;4.33;1.85;;;;;;;3.42;43.52;99283.53;1726958;83;21050;-70
2021/12/01 15:19:14;;;;;;;3.50;1.70;;;;;;;3.40;43.58;99277.69;1698148;83;21003;-71
2021/12/01 15:21:51;;;;;;;5.53;3.12;;;;;;;3.38;43.74;99281.08;1725922;83;21134;-71
2021/12/01 15:24:23;;;;;;;5.20;1.77;;;;;;;3.34;43.83;99287.88;1726424;83;21019;-70
2021/12/01 15:26:53;;;;;;;4.25;1.75;;;;;;;3.33;44.13;99283.66;1724915;83;21152;-70
2021/12/01 15:29:29;;;;;;;4.40;1.80;;;;;;;3.26;43.61;99284.34;1726589;83;21502;-69
2021/12/01 15:31:59;;;;;;;4.78;1.90;;;;;;;3.23;43.70;99293.53;1727168;81;20987;-76
2021/12/01 15:34:27;;;;;;;4.85;2.17;;;;;;;3.18;43.92;99293.95;1726603;83;21495;-75
2021/12/01 15:36:54;;;;;;;4.35;2.00;;;;;;;3.16;43.57;99298.16;1726995;83;21015;-81
2021/12/01 15:39:26;;;;;;;4.40;2.15;;;;;;;3.12;43.67;99293.59;1722928;83;21976;-79
2021/12/01 15:41:58;;;;;;;3.22;1.40;;;;;;;3.12;44.05;99289.63;1724133;83;21055;-78
2021/12/01 15:44:25;;;;;;;4.00;1.82;;;;;;;3.09;44.18;99298.02;1727377;83;21117;-77
2021/12/01 15:46:52;;;;;;;4.33;2.25;;;;;;;3.07;43.96;99306.19;1726910;83;21083;-78
2021/12/01 15:49:22;;;;;;;3.42;1.72;;;;;;;3.07;44.12;99310.67;1726883;83;21078;-75
2021/12/01 15:51:49;;;;;;;4.53;2.22;;;;;;;3.05;44.31;99321.44;1725130;83;21175;-77
2021/12/01 15:54:17;;;;;;;4.67;2.27;;;;;;;3.07;44.65;99327.29;1719688;83;20948;-77
2021/12/01 15:56:44;;;;;;;4.30;2.22;;;;;;;3.03;44.14;99328.28;1723045;82;21486;-76
2021/12/01 15:59:10;;;;;;;6.80;2.65;;;;;;;3.00;44.40;99344.58;1721623;83;21074;-83
2021/12/01 16:01:37;;;;;;;5.80;2.65;;;;;;;2.98;44.54;99336.63;1726552;83;21015;-75
2021/12/01 16:04:04;;;;;;;4.90;2.33;;;;;;;2.95;44.23;99342.37;1725238;83;21180;-75
2021/12/01 16:06:33;;;;;;;4.50;2.33;;;;;;;2.92;44.18;99340.20;1725396;83;21585;-67
2021/12/01 16:09:00;;;;;;;6.22;2.67;;;;;;;2.94;44.34;99346.84;1726938;83;20987;-68
2021/12/01 16:11:27;;;;;;;5.28;2.42;;;;;;;2.90;44.43;99339.13;1726880;83;21553;-69
2021/12/01 16:13:54;;;;;;;6.33;2.62;;;;;;;2.90;44.56;99347.56;1727130;83;20968;-69
2021/12/01 16:16:20;;;;;;;5.28;2.37;;;;;;;2.94;44.53;99353.44;1727019;83;21172;-67
2021/12/01 16:18:51;;;;;;;4.30;2.10;;;;;;;2.98;43.89;99349.81;1727086;83;21046;-69
2021/12/01 16:21:23;;;;;;;5.03;2.33;;;;;;;3.03;42.89;99340.16;1722303;83;21027;-67
2021/12/01 16:23:50;;;;;;;4.85;2.20;;;;;;;3.07;43.28;99334.41;1727112;83;21067;-68
2021/12/01 16:26:17;;;;;;;5.47;2.30;;;;;;;3.14;43.25;99335.05;1726969;83;21022;-68
2021/12/01 16:28:47;;;;;;;3.75;2.15;;;;;;;3.17;42.83;99337.22;1727034;83;21636;-68
2021/12/01 16:31:16;;;;;;;5.08;2.30;;;;;;;3.18;42.93;99325.09;1727169;83;20967;-67
2021/12/01 16:33:44;;;;;;;5.42;2.58;;;;;;;3.20;42.47;99328.83;1727071;82;21135;-68
2021/12/01 16:36:11;;;;;;;7.50;2.35;;;;;;;3.22;42.86;99334.12;1726724;83;21426;-65
2021/12/01 16:38:38;;;;;;;5.20;2.17;;;;;;;3.22;43.36;99338.61;1727167;83;21066;-68
2021/12/01 16:41:06;;;;;;;4.80;2.33;;;;;;;3.24;43.00;99339.18;1724199;83;21933;-69
2021/12/01 16:43:33;;;;;;;4.97;2.20;;;;;;;3.22;43.22;99347.31;1724600;83;20980;-66
2021/12/01 16:46:00;;;;;;;5.28;2.62;;;;;;;3.24;43.57;99354.48;1726797;83;21114;-67
2021/12/01 16:48:27;;;;;;;5.37;2.35;;;;;;;3.26;43.26;99354.27;1726959;83;21527;-65
2021/12/01 16:50:54;;;;;;;4.92;2.10;;;;;;;3.22;43.02;99370.27;1725967;83;21118;-66
2021/12/01 16:53:21;;;;;;;4.42;2.40;;;;;;;3.29;42.88;99368.28;1727294;83;21814;-66
2021/12/01 16:55:48;;;;;;;5.03;2.15;;;;;;;3.32;42.87;99365.69;1726390;82;21102;-67
2021/12/01 16:58:15;;;;;;;5.58;2.65;;;;;;;3.38;42.95;99368.17;1726895;83;21482;-63
2021/12/01 17:00:45;;;;;;;5.80;2.20;;;;;;;3.42;43.02;99360.58;1726614;83;21050;-67
2021/12/01 17:03:21;;;;;;;6.33;2.37;;;;;;;3.46;43.05;99353.28;1726484;83;21549;-65
2021/12/01 17:05:41;;;;;;;4.40;2.30;;;;;;;3.50;42.92;99363.63;1718579;82;21695;-65
2021/12/01 17:10:34;;;;;;;6.03;2.52;;;;;;;3.52;42.76;99373.44;1720094;83;21526;-67
2021/12/01 17:13:01;;;;;;;8.00;2.30;;;;;;;3.56;42.85;99367.69;1727183;83;21431;-66
2021/12/01 17:15:28;;;;;;;5.30;2.60;;;;;;;3.59;42.64;99373.28;1694214;83;21553;-69
2021/12/01 17:17:56;;;;;;;5.30;2.80;;;;;;;3.61;43.08;99369.07;1720559;83;21159;-69
2021/12/01 17:20:23;;;;;;;5.25;2.70;;;;;;;3.64;42.65;99375.20;1720418;83;21091;-70
2021/12/01 17:22:50;;;;;;;5.10;2.50;;;;;;;3.61;42.41;99382.27;1724566;83;20991;-67
2021/12/01 17:25:18;;;;;;;5.42;2.90;;;;;;;3.64;42.54;99372.03;1723327;83;21101;-71
2021/12/01 17:27:46;;;;;;;5.55;2.75;;;;;;;3.68;42.88;99374.46;1727051;83;20975;-70
2021/12/01 17:30:24;;;;;;;5.62;2.60;;;;;;;3.73;42.81;99376.40;1726104;83;21056;-69
2021/12/01 17:32:44;;;;;;;6.62;2.65;;;;;;;3.73;42.76;99383.00;1726157;81;21082;-69
2021/12/01 17:35:11;;;;;;;6.55;2.50;;;;;;;3.73;42.50;99379.84;1726304;83;21054;-69
2021/12/01 17:37:37;;;;;;;5.47;2.55;;;;;;;3.74;42.22;99377.98;1727223;83;21059;-67
2021/12/01 17:40:08;;;;;;;5.33;3.08;;;;;;;3.74;42.18;99375.34;1724144;83;20972;-67
2021/12/01 17:42:36;;;;;;;6.33;3.30;;;;;;;3.70;41.73;99382.95;1727336;83;21165;-67
2021/12/01 17:45:06;;;;;;;6.30;2.90;;;;;;;3.69;42.26;99388.49;1727116;83;20995;-69
2021/12/01 17:47:35;;;;;;;6.50;3.02;;;;;;;3.67;42.39;99390.03;1726572;83;21149;-68
2021/12/01 17:50:05;;;;;;;6.20;3.05;;;;;;;3.63;42.61;99396.05;1726961;83;21039;-69
2021/12/01 17:52:34;;;;;;;6.50;3.08;;;;;;;3.61;42.81;99402.08;1727340;83;21525;-72
2021/12/01 17:55:02;;;;;;;6.53;3.25;;;;;;;3.57;42.92;99398.32;1726934;82;21165;-73
2021/12/01 17:57:29;;;;;;;5.25;2.58;;;;;;;3.55;43.08;99397.22;1726800;83;21006;-67
2021/12/01 17:59:59;;;;;;;7.85;3.47;;;;;;;3.57;43.19;99399.64;1721547;83;21581;-70
2021/12/01 18:02:25;;;;;;;7.87;3.95;;;;;;;3.49;43.15;99389.76;1726858;83;21580;-78
2021/12/01 18:04:52;;;;;;;8.88;3.70;;;;;;;3.42;43.21;99390.44;1727442;83;20979;-72
2021/12/01 18:07:19;;;;;;;8.73;4.33;;;;;;;3.38;43.39;99387.97;1727412;83;22143;-71
2021/12/01 18:09:45;;;;;;;8.45;4.28;;;;;;;3.29;43.57;99391.53;1726837;83;21059;-71
2021/12/01 18:12:11;;;;;;;10.93;4.70;;;;;;;3.17;43.88;99397.38;1727283;83;20979;-71
2021/12/01 18:14:38;;;;;;;8.78;4.62;;;;;;;3.10;44.09;99394.62;1727719;83;21027;-77
2021/12/01 18:17:05;;;;;;;9.25;4.87;;;;;;;3.06;44.19;99400.88;1727206;83;21491;-74
2021/12/01 18:19:32;;;;;;;8.68;5.20;;;;;;;2.98;44.21;99408.63;1727417;83;21200;-73
2021/12/01 18:21:59;;;;;;;10.85;6.10;;;;;;;2.88;44.40;99407.13;1727089;83;21130;-69
2021/12/01 18:24:25;;;;;;;13.60;6.47;;;;;;;2.79;44.62;99403.25;1726143;81;21110;-72
2021/12/01 18:26:53;;;;;;;10.65;5.72;;;;;;;2.68;44.89;99395.66;1726874;83;21019;-72
2021/12/01 18:29:19;;;;;;;8.48;4.50;;;;;;;2.64;45.14;99397.69;1727124;83;21074;-72
2021/12/01 18:31:46;;;;;;;6.90;3.70;;;;;;;2.60;45.37;99398.67;1726104;83;21218;-71
2021/12/01 18:34:13;;;;;;;10.00;5.20;;;;;;;2.55;45.61;99399.36;1726936;82;21130;-73
2021/12/01 18:36:39;;;;;;;8.85;4.70;;;;;;;2.47;45.89;99394.45;1727031;83;21071;-72
2021/12/01 18:39:08;;;;;;;11.08;5.83;;;;;;;2.43;45.96;99396.45;1703988;84;20972;-70
2021/12/01 18:41:37;;;;;;;11.63;6.00;;;;;;;2.35;46.07;99391.83;1727095;83;21075;-70
2021/12/01 18:44:05;;;;;;;13.75;7.15;;;;;;;2.30;46.14;99385.64;1727292;83;21172;-73
2021/12/01 18:46:32;;;;;;;16.65;7.33;;;;;;;2.27;46.27;99386.10;1726920;83;20996;-73
2021/12/01 18:49:01;;;;;;;13.80;6.78;;;;;;;2.24;46.31;99387.91;1727378;83;21527;-72
2021/12/01 18:51:28;;;;;;;13.48;6.97;;;;;;;2.24;46.35;99395.30;1727014;83;21094;-69
2021/12/01 18:53:55;;;;;;;11.45;6.17;;;;;;;2.21;46.40;99389.16;1727207;82;21132;-72
2021/12/01 18:56:22;;;;;;;12.85;6.40;;;;;;;2.17;46.43;99395.91;1727275;83;21126;-72
2021/12/01 18:58:50;;;;;;;14.70;6.50;;;;;;;2.15;46.47;99403.77;1727156;82;21146;-70
2021/12/01 19:01:19;;;;;;;10.82;6.10;;;;;;;2.09;46.63;99401.02;1726937;83;21038;-70
2021/12/01 19:03:45;;;;;;;12.23;6.37;;;;;;;2.05;46.78;99394.61;1727343;83;21020;-69
2021/12/01 19:06:12;;;;;;;12.05;6.50;;;;;;;1.94;47.02;99391.95;1727015;83;21447;-70
2021/12/01 19:08:39;;;;;;;14.03;7.10;;;;;;;1.92;47.17;99392.72;1727269;82;21152;-70
2021/12/01 19:11:08;;;;;;;13.48;7.08;;;;;;;1.93;47.18;99391.16;1727071;83;20995;-70
2021/12/01 19:13:36;;;;;;;11.70;6.50;;;;;;;1.91;47.24;99387.98;1727139;83;21019;-69
2021/12/01 19:16:04;;;;;;;11.57;6.22;;;;;;;1.90;47.38;99396.89;1726934;83;20987;-69
2021/12/01 19:18:33;;;;;;;10.53;5.90;;;;;;;1.86;47.50;99388.64;1727159;82;21407;-69
2021/12/01 19:21:00;;;;;;;10.13;5.10;;;;;;;1.82;47.68;99391.97;1727092;83;21872;-74
2021/12/01 19:23:27;;;;;;;9.65;5.47;;;;;;;1.77;47.88;99393.95;1727115;83;21533;-70
2021/12/01 19:25:54;;;;;;;10.93;5.80;;;;;;;1.74;48.05;99397.56;1726983;82;21148;-71
2021/12/01 19:28:21;;;;;;;12.03;6.35;;;;;;;1.72;48.20;99399.64;1727161;83;21019;-70
2021/12/01 19:30:49;;;;;;;11.38;6.10;;;;;;;1.69;48.38;99401.41;1727094;83;21023;-71
2021/12/01 19:33:16;;;;;;;12.20;6.72;;;;;;;1.66;48.53;99400.54;1726957;82;21080;-71
2021/12/01 19:35:43;;;;;;;11.60;6.47;;;;;;;1.63;48.63;99399.16;1726902;83;21506;-72
2021/12/01 19:38:11;;;;;;;13.83;7.12;;;;;;;1.61;48.76;99405.97;1727111;83;21023;-72
2021/12/01 19:40:38;;;;;;;14.25;7.53;;;;;;;1.60;48.87;99403.55;1727030;83;21102;-71
2021/12/01 19:43:05;;;;;;;13.18;7.47;;;;;;;1.53;49.04;99412.86;1727258;83;21114;-74
2021/12/01 19:45:33;;;;;;;11.08;6.53;;;;;;;1.50;49.22;99413.31;1717672;83;21115;-70
2021/12/01 19:48:01;;;;;;;13.05;6.92;;;;;;;1.46;49.39;99410.85;1725848;83;20999;-71
2021/12/01 19:50:28;;;;;;;11.90;6.40;;;;;;;1.45;49.47;99415.83;1726720;83;21039;-71
2021/12/01 19:52:55;;;;;;;12.53;6.87;;;;;;;1.43;49.54;99423.14;1726742;83;21059;-80
2021/12/01 19:55:22;;;;;;;13.38;7.58;;;;;;;1.42;49.65;99422.86;1726260;83;21565;-70
2021/12/01 19:57:51;;;;;;;12.33;7.10;;;;;;;1.39;49.77;99428.05;1726979;83;21117;-72
2021/12/01 20:00:30;;;;;;;14.15;7.47;;;;;;;1.39;49.89;99427.25;1726435;83;21195;-71
2021/12/01 20:02:57;;;;;;;12.07;6.95;;;;;;;1.38;49.97;99421.68;1726476;83;21047;-70
2021/12/01 20:05:24;;;;;;;15.65;7.53;;;;;;;1.39;50.04;99417.53;1726141;83;21054;-71
2021/12/01 20:07:51;;;;;;;14.58;7.92;;;;;;;1.41;50.19;99429.13;1726857;83;21514;-71
2021/12/01 20:10:22;;;;;;;13.43;7.65;;;;;;;1.39;50.34;99437.78;1726215;83;21576;-68
2021/12/01 20:12:55;;;;;;;12.70;8.73;;;;;;;1.45;50.43;99439.52;1726711;83;21015;-67
2021/12/01 20:15:22;;;;;;;13.83;8.08;;;;;;;1.51;50.51;99429.37;1722692;82;21096;-68
2021/12/01 20:17:50;;;;;;;12.58;7.67;;;;;;;1.59;50.63;99437.48;1722901;81;21047;-68
2021/12/01 20:20:18;;;;;;;12.25;7.45;;;;;;;1.67;50.69;99444.25;1702597;81;21079;-68
2021/12/01 20:22:47;;;;;;;11.50;7.42;;;;;;;1.74;50.71;99443.11;1725078;81;21543;-67
2021/12/01 20:25:17;;;;;;;16.23;7.53;;;;;;;1.79;50.74;99452.45;1716226;83;21593;-68
2021/12/01 20:27:45;;;;;;;10.38;7.17;;;;;;;1.82;50.76;99453.84;1717135;83;21000;-67
2021/12/01 20:30:11;;;;;;;13.72;7.20;;;;;;;1.86;50.71;99457.63;1717374;83;21625;-68
2021/12/01 20:32:39;;;;;;;12.43;6.75;;;;;;;1.85;50.61;99459.45;1721522;83;21066;-68
2021/12/01 20:35:09;;;;;;;13.20;7.42;;;;;;;1.86;50.63;99463.69;1712876;83;21134;-68
2021/12/01 20:37:38;;;;;;;14.10;7.40;;;;;;;1.91;50.64;99464.34;1726038;82;21090;-68
2021/12/01 20:40:06;;;;;;;11.27;6.90;;;;;;;1.95;50.61;99472.06;1596639;82;10000341;-67
2021/12/01 20:42:38;;;;;;;12.40;7.62;;;;;;;1.98;50.63;99477.40;1718895;82;21094;-68
2021/12/01 20:45:08;;;;;;;13.20;7.80;;;;;;;2.00;50.60;99474.80;1709478;82;21146;-69
2021/12/01 20:58:27;;;;;;;10.93;6.30;;;;;;;2.05;50.36;99470.98;1705101;83;21901;-69
2021/12/01 21:03:40;;;;;;;11.05;6.87;;;;;;;2.05;50.51;99480.73;1711413;83;21463;-68
2021/12/01 21:06:07;;;;;;;12.80;6.92;;;;;;;1.97;50.59;99476.58;1709687;81;21507;-67
2021/12/01 21:08:36;;;;;;;14.90;8.58;;;;;;;1.96;50.61;99468.91;1718501;82;22237;-69
2021/12/01 21:11:12;;;;;;;15.72;8.15;;;;;;;1.99;50.64;99475.84;1600740;82;9999707;-69
2021/12/01 21:13:37;;;;;;;15.90;8.13;;;;;;;2.01;50.64;99473.00;1714867;83;21059;-69
2021/12/01 21:16:01;;;;;;;14.47;7.97;;;;;;;1.97;50.75;99481.04;1712961;83;21160;-68
2021/12/01 21:18:27;;;;;;;15.80;8.60;;;;;;;1.95;50.85;99485.75;1705868;83;21058;-69
2021/12/01 21:20:54;;;;;;;17.57;8.83;;;;;;;1.88;50.92;99477.95;1721946;81;21128;-68
2021/12/01 21:23:21;;;;;;;16.02;9.53;;;;;;;1.82;51.08;99478.86;1726391;83;21480;-68
2021/12/01 21:25:55;;;;;;;16.97;9.53;;;;;;;1.77;51.35;99476.08;1726232;83;20964;-68
2021/12/01 21:28:24;;;;;;;18.20;9.93;;;;;;;1.73;51.41;99474.42;1726100;83;21604;-69
2021/12/01 21:30:55;;;;;;;18.70;11.00;;;;;;;1.68;51.41;99472.98;1726168;83;21035;-68
2021/12/01 21:33:22;;;;;;;20.77;10.65;;;;;;;1.63;51.48;99480.75;1709697;83;21236;-68
2021/12/01 21:35:49;;;;;;;17.50;10.40;;;;;;;1.58;51.57;99472.22;1725549;83;21634;-69
2021/12/01 21:38:15;;;;;;;18.37;10.28;;;;;;;1.56;51.66;99472.95;1710815;83;21122;-68
2021/12/01 21:40:43;;;;;;;19.05;10.35;;;;;;;1.53;51.75;99468.64;1724608;83;21086;-70
2021/12/01 21:43:10;;;;;;;17.62;9.88;;;;;;;1.47;51.83;99465.07;1724601;82;21193;-71
2021/12/01 21:45:37;;;;;;;18.57;9.43;;;;;;;1.38;51.97;99467.23;1715527;83;21170;-72
2021/12/01 22:01:46;;;;;;;11.50;6.40;;;;;;;1.69;52.34;99486.43;1811876;78;22580;-68
2021/12/01 22:04:13;;;;;;;13.00;7.00;;;;;;;1.56;52.29;99494.52;1732618;80;21039;-68
2021/12/01 22:06:41;;;;;;;12.43;6.70;;;;;;;1.42;52.40;99497.84;1786980;80;21023;-68
2021/12/01 22:09:08;;;;;;;12.50;6.60;;;;;;;1.32;52.55;99498.37;1793917;78;21551;-68
2021/12/01 22:11:34;;;;;;;11.70;6.05;;;;;;;1.26;52.71;99501.09;1794087;80;21052;-68
2021/12/01 22:14:01;;;;;;;10.68;6.58;;;;;;;1.12;52.94;99501.25;1793131;78;20940;-67
2021/12/01 22:16:29;;;;;;;13.32;7.12;;;;;;;1.10;53.07;99507.75;1793347;78;21008;-68
2021/12/01 22:18:56;;;;;;;10.50;6.05;;;;;;;1.03;53.26;99509.14;1793713;80;21193;-68
2021/12/01 22:21:24;;;;;;;11.48;6.35;;;;;;;0.96;53.44;99504.48;1793250;78;21007;-68
2021/12/01 22:23:59;;;;;;;11.55;6.78;;;;;;;0.94;53.55;99506.00;1794011;80;20889;-67
2021/12/01 22:26:32;;;;;;;12.20;7.08;;;;;;;0.93;53.63;99493.08;1793243;78;21060;-68
2021/12/01 22:28:59;;;;;;;12.85;7.03;;;;;;;0.88;53.74;99497.67;1793032;78;20957;-67
2021/12/01 22:31:26;;;;;;;13.35;6.85;;;;;;;0.84;53.89;99495.70;1793997;80;21996;-67
2021/12/01 22:33:53;;;;;;;13.03;7.62;;;;;;;0.77;54.08;99498.92;1793460;80;21036;-67
2021/12/01 22:36:22;;;;;;;15.68;8.40;;;;;;;0.74;54.25;99494.91;1793906;80;20870;-67
2021/12/01 22:38:49;;;;;;;14.68;8.20;;;;;;;0.69;54.40;99496.05;1793957;80;21048;-68